Flight Track Log - Related Links

Times and Time Zones

All times are in EDT time to prevent confusion due to time zone crossing. See the UAL3773 flight status page for this flight to view local times or setup timezone preferences in your user account.

Time Position Orientation Groundspeed Altitude Reporting Facility
EDT Latitude Longitude Course Direction KTS MPH feet Rate Location/Type
Sun 03:37:25 PM 38.9333 -77.5667 287° West 223 257 2,600  Level Potomac TRACON
Sun 03:38:26 PM 38.9167 -77.6500 256° West 246 283 5,000 1,857 Climbing Potomac TRACON
Sun 03:38:49 PM 38.9014 -77.6908 244° Southwest 247 284 5,200 2,241 Climbing Washington Center
Sun 03:39:49 PM 38.8689 -77.7592 239° Southwest 256 295 8,100 2,600 Climbing Washington Center
Sun 03:40:49 PM 38.8258 -77.8325 233° Southwest 261 300 10,400 1,700 Climbing Washington Center
Sun 03:41:49 PM 38.7844 -77.9219 239° Southwest 275 316 11,500 1,650 Climbing Washington Center
Sun 03:42:00 PM 38.8042 -78.0068 287° West  Level FlightAware Approximate
Sun 03:42:49 PM 38.8072 -78.0319 285° West 280 322 13,700  Level Washington Center
Sun 03:43:49 PM 38.8344 -78.1367 288° West 293 337 15,400 1,650 Climbing Washington Center
Sun 03:44:49 PM 38.8528 -78.2547 281° West 315 362 17,000 1,650 Climbing Washington Center
Sun 03:45:49 PM 38.8519 -78.3772 270° West 337 388 18,700 1,400 Climbing Washington Center
Sun 03:46:49 PM 38.8489 -78.5025 268° West 350 403 19,800 1,400 Climbing Washington Center
Sun 03:47:49 PM 38.8478 -78.6331 269° West 363 418 21,500 1,750 Climbing Washington Center
Sun 03:48:49 PM 38.8467 -78.7608 269° West 363 418 23,300 1,450 Climbing Washington Center
Sun 03:49:49 PM 38.8431 -78.8914 268° West 363 418 24,400 850 Climbing Washington Center
Sun 03:50:49 PM 38.8414 -79.0272 269° West 374 430 25,000 300 Climbing Washington Center
Sun 03:51:49 PM 38.8394 -79.1683 269° West 385 443 25,000  Level Washington Center
Sun 03:52:49 PM 38.8414 -79.3044 271° West 391 450 25,000  Level Washington Center
Sun 03:53:49 PM 38.8331 -79.4400 266° West 386 444 25,000  Level Washington Center
Sun 03:54:49 PM 38.8325 -79.5839 270° West 386 444 25,000  Level Washington Center
Sun 03:55:49 PM 38.8317 -79.7303 270° West 406 467 25,000  Level Washington Center
Sun 03:56:49 PM 38.8294 -79.8528 269° West 400 460 25,000  Level Washington Center
Sun 03:57:49 PM 38.8244 -79.9911 267° West 395 455 25,000  Level Washington Center
Sun 03:58:49 PM 38.8217 -80.1269 269° West 395 455 25,000  Level Washington Center
Sun 03:59:18 PM 38.8172 -80.1972 265° West 395 455 25,000  Level Indianapolis Center
Sun 04:00:20 PM 38.8139 -80.3381 268° West 397 457 25,000  Level Indianapolis Center
Sun 04:01:22 PM 38.8094 -80.4761 268° West 387 445 25,000  Level Indianapolis Center
Sun 04:02:24 PM 38.8056 -80.6172 268° West 394 453 25,000  Level Indianapolis Center
Sun 04:03:26 PM 38.8017 -80.7575 268° West 395 455 25,000  Level Indianapolis Center
Sun 04:04:28 PM 38.7961 -80.9281 268° West 400 460 25,000  Level Indianapolis Center
Sun 04:05:30 PM 38.7911 -81.0728 268° West 405 466 25,000  Level Indianapolis Center
Sun 04:06:31 PM 38.7861 -81.2161 267° West 406 467 25,000  Level Indianapolis Center
Sun 04:07:33 PM 38.7811 -81.3581 267° West 403 464 25,000  Level Indianapolis Center
Sun 04:08:35 PM 38.7767 -81.4983 268° West 402 463 25,000 97 Level Indianapolis Center
Sun 04:09:37 PM 38.7697 -81.6628 267° West 398 458 25,200 1,258 Climbing Indianapolis Center
Sun 04:10:39 PM 38.7647 -81.7936 267° West 374 430 27,600 1,645 Climbing Indianapolis Center
Sun 04:11:41 PM 38.7597 -81.9214 267° West 361 415 28,600 927 Climbing Indianapolis Center
Sun 04:12:42 PM 38.7539 -82.0539 267° West 370 426 29,500 878 Climbing Indianapolis Center
Sun 04:13:44 PM 38.7492 -82.1856 267° West 373 429 30,400 871 Climbing Indianapolis Center
Sun 04:14:46 PM 38.7439 -82.3194 267° West 376 433 31,300 1,210 Climbing Indianapolis Center
Sun 04:15:48 PM 38.7372 -82.4750 267° West 367 422 32,900 1,355 Climbing Indianapolis Center
Sun 04:16:50 PM 38.7328 -82.5986 267° West 351 404 34,100 1,016 Climbing Indianapolis Center
Sun 04:17:52 PM 38.7269 -82.7203 267° West 343 395 35,000 726 Climbing Indianapolis Center
Sun 04:18:54 PM 38.7228 -82.8417 268° West 342 394 35,600 484 Climbing Indianapolis Center
Sun 04:19:56 PM 38.7167 -82.9614 266° West 339 390 36,000 194 Climbing Indianapolis Center
Sun 04:20:58 PM 38.7117 -83.0886 267° West 351 404 36,000  Level Indianapolis Center
Sun 04:22:00 PM 38.7039 -83.2303 266° West 360 414 36,000  Level Indianapolis Center
Sun 04:23:02 PM 38.6981 -83.3614 267° West 364 419 36,000  Level Indianapolis Center
Sun 04:24:03 PM 38.6917 -83.4917 266° West 363 418 36,000  Level Indianapolis Center
Sun 04:25:05 PM 38.6856 -83.6214 267° West 362 417 36,000  Level Indianapolis Center
Sun 04:26:07 PM 38.6775 -83.7750 266° West 366 421 36,000  Level Indianapolis Center
Sun 04:27:09 PM 38.6711 -83.9044 266° West 362 417 36,000  Level Indianapolis Center
Sun 04:28:11 PM 38.6644 -84.0336 266° West 360 414 36,000  Level Indianapolis Center
Sun 04:29:13 PM 38.6572 -84.1633 266° West 362 417 36,000  Level Indianapolis Center
Sun 04:30:15 PM 38.6503 -84.2925 266° West 361 415 36,000  Level Indianapolis Center
Sun 04:31:17 PM 38.6567 -84.4244 274° West 369 425 36,000  Level Indianapolis Center
Sun 04:32:19 PM 38.6633 -84.5642 274° West 372 428 36,000  Level Indianapolis Center
Sun 04:33:21 PM 38.6717 -84.6992 275° West 380 437 36,000  Level Indianapolis Center
Sun 04:34:23 PM 38.6794 -84.8339 274° West 380 437 36,000  Level Indianapolis Center
Sun 04:35:25 PM 38.6883 -84.9875 274° West 381 438 36,000  Level Indianapolis Center
Sun 04:36:27 PM 38.6947 -85.1236 273° West 383 441 36,000  Level Indianapolis Center
Sun 04:37:28 PM 38.7022 -85.2586 274° West 380 437 36,000  Level Indianapolis Center
Sun 04:38:30 PM 38.7094 -85.3953 274° West 382 440 36,000  Level Indianapolis Center
Sun 04:39:32 PM 38.7158 -85.5314 273° West 383 441 36,000  Level Indianapolis Center
Sun 04:40:34 PM 38.7233 -85.6686 274° West 385 443 36,000  Level Indianapolis Center
Sun 04:41:36 PM 38.7308 -85.8064 274° West 387 445 36,000  Level Indianapolis Center
Sun 04:42:38 PM 38.7594 -85.9725 283° West 399 459 36,000  Level Indianapolis Center
Sun 04:43:40 PM 38.7825 -86.1097 282° West 397 457 36,000  Level Indianapolis Center
Sun 04:44:41 PM 38.8053 -86.2489 282° West 399 459 36,000  Level Indianapolis Center
Sun 04:45:43 PM 38.8281 -86.3869 282° West 397 457 36,000  Level Indianapolis Center
Sun 04:46:45 PM 38.8508 -86.5275 282° West 401 461 36,000  Level Indianapolis Center
Sun 04:47:47 PM 38.8731 -86.6669 282° West 400 460 36,000  Level Indianapolis Center
Sun 04:48:49 PM 38.8958 -86.8089 282° West 406 467 36,000  Level Indianapolis Center
Sun 04:49:51 PM 38.9231 -86.9814 282° West 413 475 36,000  Level Indianapolis Center
Sun 04:50:53 PM 38.9461 -87.1236 282° West 411 473 36,000  Level Indianapolis Center
Sun 04:51:54 PM 38.9681 -87.2669 281° West 410 472 36,000  Level Indianapolis Center
Sun 04:52:56 PM 38.9903 -87.4089 281° West 407 468 36,000  Level Indianapolis Center
Sun 04:53:58 PM 39.0125 -87.5503 281° West 404 465 36,000  Level Indianapolis Center
Sun 04:55:00 PM 39.0336 -87.6933 281° West 406 467 36,000  Level Indianapolis Center
Sun 04:56:02 PM 39.0547 -87.8369 281° West 408 470 36,000  Level Indianapolis Center
Sun 04:57:03 PM 39.0808 -88.0083 281° West 407 468 36,000  Level Indianapolis Center
Sun 04:58:05 PM 39.1019 -88.1533 281° West 409 471 36,000  Level Indianapolis Center
Sun 04:59:07 PM 39.1236 -88.2994 281° West 413 475 36,000  Level Indianapolis Center
Sun 05:00:09 PM 39.1436 -88.4450 280° West 414 476 36,000  Level Indianapolis Center
Sun 05:01:10 PM 39.1639 -88.5911 280° West 413 475 36,000  Level Indianapolis Center
Sun 05:02:12 PM 39.1850 -88.7356 281° West 412 474 36,000  Level Indianapolis Center
Sun 05:03:14 PM 39.2067 -88.8831 281° West 414 476 36,000  Level Indianapolis Center
Sun 05:04:16 PM 39.2261 -89.0331 280° West 420 483 36,000  Level Indianapolis Center
Sun 05:05:17 PM 39.2544 -89.2097 282° West 420 483 36,000  Level Indianapolis Center
Sun 05:05:32 PM 39.2542 -89.2308 269° West 421 484 36,000  Level Kansas City Center
Sun 05:06:33 PM 39.2753 -89.3786 281° West 421 484 36,000  Level Kansas City Center
Sun 05:07:37 PM 39.2967 -89.5281 281° West 424 488 36,000  Level Kansas City Center
Sun 05:08:37 PM 39.3206 -89.7075 280° West 425 489 36,000  Level Kansas City Center
Sun 05:09:41 PM 39.3394 -89.8558 279° West 424 488 36,000  Level Kansas City Center
Sun 05:10:42 PM 39.3592 -90.0044 280° West 423 487 36,000  Level Kansas City Center
Sun 05:11:43 PM 39.3781 -90.1561 279° West 427 491 36,000  Level Kansas City Center
Sun 05:12:48 PM 39.3986 -90.3081 280° West 431 496 36,000  Level Kansas City Center
Sun 05:13:48 PM 39.4172 -90.4597 279° West 431 496 36,000  Level Kansas City Center
Sun 05:14:49 PM 39.4397 -90.6389 279° West 426 490 36,000  Level Kansas City Center
Sun 05:15:53 PM 39.4575 -90.7881 279° West 424 488 36,000  Level Kansas City Center
Sun 05:16:54 PM 39.4767 -90.9353 280° West 420 483 36,000  Level Kansas City Center
Sun 05:17:57 PM 39.4950 -91.0825 279° West 418 481 36,000  Level Kansas City Center
Sun 05:18:58 PM 39.5114 -91.2319 278° West 420 483 36,000  Level Kansas City Center
Sun 05:19:59 PM 39.5303 -91.3875 279° West 417 480 36,000  Level Kansas City Center
Sun 05:21:03 PM 39.5508 -91.5647 279° West 417 480 36,000  Level Kansas City Center
Sun 05:22:03 PM 39.5681 -91.7122 279° West 417 480 36,000  Level Kansas City Center
Sun 05:23:07 PM 39.5850 -91.8631 278° West 422 486 36,000  Level Kansas City Center
Sun 05:24:08 PM 39.6019 -92.0142 278° West 424 488 36,000  Level Kansas City Center
Sun 05:25:12 PM 39.6208 -92.1719 279° West 429 494 36,000  Level Kansas City Center
Sun 05:26:12 PM 39.6369 -92.3225 278° West 433 498 36,000 -397 Level Kansas City Center
Sun 05:27:13 PM 39.6533 -92.5094 277° West 439 505 35,200 -1,104 Descending Kansas City Center
Sun 05:28:17 PM 39.6522 -92.6567 269° West 420 483 33,700 -1,680 Descending Kansas City Center
Sun 05:29:18 PM 39.6508 -92.8036 269° West 413 475 31,700 -2,311 Descending Kansas City Center
Sun 05:30:19 PM 39.6478 -92.9511 269° West 411 473 29,000 -2,640 Descending Kansas City Center
Sun 05:31:23 PM 39.6453 -93.0983 269° West 411 473 26,200 -2,571 Descending Kansas City Center
Sun 05:32:25 PM 39.6439 -93.2347 269° West 389 448 23,600 -2,878 Descending Kansas City Center
Sun 05:33:26 PM 39.6408 -93.3900 269° West 364 419 20,300 -3,148 Descending Kansas City Center
Sun 05:34:27 PM 39.6383 -93.5131 269° West 355 409 17,200 -2,448 Descending Kansas City Center
Sun 05:35:31 PM 39.6353 -93.6272 268° West 328 377 15,200 -1,935 Descending Kansas City Center
Sun 05:36:31 PM 39.6328 -93.7517 269° West 335 386 13,200 -2,081 Descending Kansas City Center
Sun 05:37:35 PM 39.6275 -93.8822 267° West 327 376 10,900 -1,536 Descending Kansas City Center
Sun 05:38:36 PM 39.5828 -93.9683 236° Southwest 299 344 10,000 -443 Descending Kansas City Center
Sun 05:39:37 PM 39.5361 -94.0636 238° Southwest 281 323 10,000 -639 Level Kansas City Center
Sun 05:40:38 PM 39.5272 -94.1500 262° West 260 299 8,700 -1,632 Descending Kansas City Center
Sun 05:41:42 PM 39.5214 -94.2550 266° West 260 299 6,600 -1,776 Descending Kansas City Center
Sun 05:42:43 PM 39.5089 -94.3411 259° West 255 293 5,000 -1,279 Descending Kansas City Center
Sun 05:43:44 PM 39.4953 -94.4217 258° West 242 278 4,000 -960 Descending Kansas City Center
Sun 05:44:48 PM 39.4803 -94.5142 258° West 236 272 3,000 -484 Descending Kansas City Center
Sun 05:45:48 PM 39.4664 -94.5939 257° West 237 273 3,000 -148 Level Kansas City Center
Sun 05:46:50 PM 39.4336 -94.6686 240° Southwest 202 232 2,700 -238 Descending Kansas City Center
Sun 05:47:54 PM 39.3983 -94.6989 214° Southwest 164 189 2,500 -484 Descending Kansas City Center
Sun 05:48:54 PM 39.3586 -94.7103 192° South 131 151 1,700 -694 Descending Kansas City Center
Sun 05:49:55 PM 39.3244 -94.7208 193° South 132 152 1,100 -590 Descending Kansas City Center
Sun 05:51:00 PM 39.2976 -94.7139 270° West  Level Estimated

Login

Don't have an account? Register now (free) for customized features, flight alerts, and more!